Time;durP1;ratioP1;P1;durP2;ratioP2;P2;SDS_P1;SDS_P2;PMS_P1;PMS_P2;Temp;Humidity;BMP_temperature;BMP_pressure;BME280_temperature;BME280_humidity;BME280_pressure;Samples;Min_cycle;Max_cycle;Signal;HPM_P1;HPM_P2
2023/12/21 00:00:11;;;;;;;1.75;1.65;;;;;;;;;;4974274;28;20038;-66
2023/12/21 00:02:37;;;;;;;4.03;1.75;;;;;;;;;;4996034;28;20026;-66
2023/12/21 00:05:03;;;;;;;1.77;1.67;;;;;;;;;;4963068;28;20105;-66
2023/12/21 00:07:30;;;;;;;2.35;1.63;;;;;;;;;;5027514;28;20559;-67
2023/12/21 00:09:56;;;;;;;2.85;1.40;;;;;;;;;;4982541;28;20027;-67
2023/12/21 00:12:24;;;;;;;3.38;1.70;;;;;;;;;;4989668;28;20092;-67
2023/12/21 00:14:50;;;;;;;4.70;2.03;;;;;;;;;;4974359;28;20280;-67
2023/12/21 00:17:16;;;;;;;3.35;1.52;;;;;;;;;;5000432;28;20059;-67
2023/12/21 00:19:43;;;;;;;3.20;1.80;;;;;;;;;;4989193;28;20812;-67
2023/12/21 00:22:09;;;;;;;3.20;1.95;;;;;;;;;;4967398;28;20061;-66
2023/12/21 00:24:35;;;;;;;4.18;1.67;;;;;;;;;;4970439;28;20516;-67
2023/12/21 00:27:02;;;;;;;4.30;1.80;;;;;;;;;;4975805;28;20034;-67
2023/12/21 00:29:35;;;;;;;2.17;1.45;;;;;;;;;;4960484;28;20031;-67
2023/12/21 00:32:02;;;;;;;3.35;1.63;;;;;;;;;;5006481;28;20329;-67
2023/12/21 00:34:28;;;;;;;1.83;1.38;;;;;;;;;;4999032;28;20053;-67
2023/12/21 00:36:54;;;;;;;2.15;1.75;;;;;;;;;;4999540;28;20111;-66
2023/12/21 00:39:21;;;;;;;3.63;1.70;;;;;;;;;;4961951;28;20030;-66
2023/12/21 00:41:49;;;;;;;3.40;2.00;;;;;;;;;;4983537;28;20054;-66
2023/12/21 00:44:15;;;;;;;3.30;1.80;;;;;;;;;;5001412;28;20031;-66
2023/12/21 00:46:43;;;;;;;4.07;1.90;;;;;;;;;;4982392;28;20122;-66
2023/12/21 00:49:09;;;;;;;3.30;1.75;;;;;;;;;;4981721;28;20031;-67
2023/12/21 00:51:36;;;;;;;5.28;1.70;;;;;;;;;;5003498;28;20125;-66
2023/12/21 00:54:02;;;;;;;4.68;1.92;;;;;;;;;;4961400;28;20041;-66
2023/12/21 00:56:28;;;;;;;4.15;1.90;;;;;;;;;;4962835;28;20135;-67
2023/12/21 00:58:59;;;;;;;4.45;1.65;;;;;;;;;;4967790;28;20023;-65
2023/12/21 01:01:26;;;;;;;3.78;1.67;;;;;;;;;;4967846;28;20138;-66
2023/12/21 01:03:52;;;;;;;5.68;1.98;;;;;;;;;;4969391;28;20030;-66
2023/12/21 01:06:21;;;;;;;5.93;2.65;;;;;;;;;;5000307;28;20034;-66
2023/12/21 01:08:47;;;;;;;9.38;2.10;;;;;;;;;;5031601;28;20048;-66
2023/12/21 01:11:14;;;;;;;2.42;2.22;;;;;;;;;;4974950;28;20446;-67
2023/12/21 01:13:40;;;;;;;4.38;2.60;;;;;;;;;;4982518;28;20026;-65
2023/12/21 01:16:07;;;;;;;6.25;2.72;;;;;;;;;;4964669;28;20054;-66
2023/12/21 01:18:33;;;;;;;8.90;2.45;;;;;;;;;;4942237;28;20027;-65
2023/12/21 01:20:59;;;;;;;4.00;2.58;;;;;;;;;;4962916;28;20045;-66
2023/12/21 01:23:29;;;;;;;9.68;2.55;;;;;;;;;;4966610;28;20031;-64
2023/12/21 01:25:55;;;;;;;9.38;3.05;;;;;;;;;;4965689;28;20049;-66
2023/12/21 01:28:21;;;;;;;3.40;2.22;;;;;;;;;;4959863;28;20042;-66
2023/12/21 01:30:48;;;;;;;8.52;2.28;;;;;;;;;;4962534;28;20387;-68
2023/12/21 01:33:15;;;;;;;5.63;2.10;;;;;;;;;;4968607;28;20046;-71
2023/12/21 01:35:41;;;;;;;6.95;2.55;;;;;;;;;;4962633;28;20426;-66
2023/12/21 01:38:07;;;;;;;9.95;2.78;;;;;;;;;;4972674;28;20027;-66
2023/12/21 01:40:33;;;;;;;6.20;2.10;;;;;;;;;;4988280;28;20031;-67
2023/12/21 01:43:00;;;;;;;8.68;2.42;;;;;;;;;;4963436;28;20517;-66
2023/12/21 01:45:26;;;;;;;10.57;2.92;;;;;;;;;;4986175;28;20041;-66
2023/12/21 01:47:52;;;;;;;4.15;2.20;;;;;;;;;;4965346;28;20023;-67
2023/12/21 01:50:19;;;;;;;5.80;3.17;;;;;;;;;;5004470;28;20070;-66
2023/12/21 01:52:46;;;;;;;6.85;2.33;;;;;;;;;;4954193;28;20475;-66
2023/12/21 01:55:16;;;;;;;7.25;2.60;;;;;;;;;;4990047;28;20230;-67
2023/12/21 01:57:43;;;;;;;6.90;2.92;;;;;;;;;;4960059;28;20278;-67
2023/12/21 02:00:10;;;;;;;9.25;2.20;;;;;;;;;;4959989;28;20069;-66
2023/12/21 02:02:36;;;;;;;14.02;2.80;;;;;;;;;;4954066;28;20103;-65
2023/12/21 02:05:10;;;;;;;6.63;2.13;;;;;;;;;;4963484;28;20066;-67
2023/12/21 02:07:36;;;;;;;4.30;2.53;;;;;;;;;;4952178;28;20041;-66
2023/12/21 02:10:09;;;;;;;7.72;2.28;;;;;;;;;;4956497;28;20030;-67
2023/12/21 02:12:36;;;;;;;7.03;2.13;;;;;;;;;;5029893;28;20034;-66
2023/12/21 02:15:02;;;;;;;12.48;2.50;;;;;;;;;;4961915;28;20038;-64
2023/12/21 02:17:30;;;;;;;4.45;2.17;;;;;;;;;;4940875;28;20125;-66
2023/12/21 02:19:59;;;;;;;5.85;2.80;;;;;;;;;;4991133;28;20192;-66
2023/12/21 02:22:28;;;;;;;7.78;2.25;;;;;;;;;;4968670;28;20522;-65
2023/12/21 02:24:54;;;;;;;12.82;2.85;;;;;;;;;;4961678;28;20063;-66
2023/12/21 02:27:24;;;;;;;7.30;2.30;;;;;;;;;;4995625;28;20045;-65
2023/12/21 02:29:50;;;;;;;14.70;3.00;;;;;;;;;;4960930;28;20410;-65
2023/12/21 02:32:19;;;;;;;7.25;2.33;;;;;;;;;;4959827;28;20081;-66
2023/12/21 02:34:45;;;;;;;6.78;2.50;;;;;;;;;;4974663;28;20026;-67
2023/12/21 02:37:12;;;;;;;9.57;2.75;;;;;;;;;;4979265;28;20146;-66
2023/12/21 02:39:38;;;;;;;4.75;2.15;;;;;;;;;;4968200;28;20023;-66
2023/12/21 02:42:06;;;;;;;11.00;4.00;;;;;;;;;;4973096;28;20027;-67
2023/12/21 02:44:32;;;;;;;5.40;1.85;;;;;;;;;;4963422;28;20096;-66
2023/12/21 02:46:58;;;;;;;7.88;2.95;;;;;;;;;;4970774;28;20038;-66
2023/12/21 02:49:25;;;;;;;11.40;2.83;;;;;;;;;;4966422;28;20030;-67
2023/12/21 02:51:51;;;;;;;8.18;2.60;;;;;;;;;;4963518;28;20031;-70
2023/12/21 02:54:18;;;;;;;7.45;2.28;;;;;;;;;;4982144;28;20058;-66
2023/12/21 02:56:44;;;;;;;4.78;2.13;;;;;;;;;;4990176;28;20121;-66
2023/12/21 02:59:11;;;;;;;9.15;2.25;;;;;;;;;;4972282;28;20638;-65
2023/12/21 03:01:41;;;;;;;5.45;2.28;;;;;;;;;;4971917;28;20094;-66
2023/12/21 03:04:07;;;;;;;7.13;2.28;;;;;;;;;;4944159;28;20795;-66
2023/12/21 03:06:33;;;;;;;6.03;2.70;;;;;;;;;;4964359;28;20183;-67
2023/12/21 03:08:59;;;;;;;12.60;2.50;;;;;;;;;;4981382;28;20413;-67
2023/12/21 03:11:26;;;;;;;7.82;2.88;;;;;;;;;;4962647;28;20058;-67
2023/12/21 03:13:52;;;;;;;9.20;3.22;;;;;;;;;;4964197;28;20031;-66
2023/12/21 03:16:18;;;;;;;7.60;2.45;;;;;;;;;;4953940;28;20525;-67
2023/12/21 03:18:48;;;;;;;2.65;1.95;;;;;;;;;;4979860;28;20027;-67
2023/12/21 03:21:15;;;;;;;5.45;2.60;;;;;;;;;;4964035;28;20062;-67
2023/12/21 03:23:41;;;;;;;6.35;2.45;;;;;;;;;;4965543;28;20027;-66
2023/12/21 03:26:08;;;;;;;4.78;2.20;;;;;;;;;;4963963;28;20030;-68
2023/12/21 03:28:34;;;;;;;4.97;2.05;;;;;;;;;;4979421;28;20527;-67
2023/12/21 03:31:07;;;;;;;9.38;2.42;;;;;;;;;;4962269;28;20101;-66
2023/12/21 03:33:33;;;;;;;5.38;2.25;;;;;;;;;;4957025;28;20033;-67
2023/12/21 03:35:59;;;;;;;5.55;2.35;;;;;;;;;;4958907;28;20059;-67
2023/12/21 03:38:25;;;;;;;10.55;2.83;;;;;;;;;;4979403;28;20455;-67
2023/12/21 03:40:51;;;;;;;12.68;2.85;;;;;;;;;;4960998;28;20035;-66
2023/12/21 03:43:18;;;;;;;6.45;2.40;;;;;;;;;;4949610;28;20486;-67
2023/12/21 03:45:44;;;;;;;10.20;2.40;;;;;;;;;;4970470;28;20085;-66
2023/12/21 03:48:10;;;;;;;6.63;2.95;;;;;;;;;;4964657;28;20027;-67
2023/12/21 03:50:37;;;;;;;10.82;2.60;;;;;;;;;;4966142;28;20675;-67
2023/12/21 03:53:04;;;;;;;9.32;2.60;;;;;;;;;;4962196;28;20034;-65
2023/12/21 03:55:30;;;;;;;9.93;2.45;;;;;;;;;;4966767;28;20030;-65
2023/12/21 03:57:56;;;;;;;7.70;2.33;;;;;;;;;;4972609;28;20073;-66
2023/12/21 04:00:23;;;;;;;10.52;3.22;;;;;;;;;;4989604;28;20023;-66
2023/12/21 04:02:51;;;;;;;8.77;3.47;;;;;;;;;;4959426;28;20085;-65
2023/12/21 04:05:17;;;;;;;10.75;3.00;;;;;;;;;;4981956;28;20035;-67
2023/12/21 04:07:43;;;;;;;11.57;3.58;;;;;;;;;;4970220;28;20038;-66
2023/12/21 04:10:09;;;;;;;9.52;3.00;;;;;;;;;;4964776;28;20019;-66
2023/12/21 04:12:36;;;;;;;8.15;3.78;;;;;;;;;;4956574;28;20035;-67
2023/12/21 04:15:02;;;;;;;6.03;2.13;;;;;;;;;;4970850;28;20368;-65
2023/12/21 04:17:29;;;;;;;4.68;2.65;;;;;;;;;;4966837;28;20034;-66
2023/12/21 04:19:55;;;;;;;7.05;2.38;;;;;;;;;;4963200;28;20027;-67
2023/12/21 04:22:22;;;;;;;6.90;2.70;;;;;;;;;;4972882;28;20062;-66
2023/12/21 04:24:48;;;;;;;12.85;2.70;;;;;;;;;;4958152;28;20038;-66
2023/12/21 04:27:14;;;;;;;9.20;2.72;;;;;;;;;;4971020;28;20059;-66
2023/12/21 04:29:41;;;;;;;5.38;2.92;;;;;;;;;;4957281;28;20034;-66
2023/12/21 04:32:07;;;;;;;10.02;2.85;;;;;;;;;;4960552;28;20059;-66
2023/12/21 04:34:33;;;;;;;7.65;3.95;;;;;;;;;;4966988;28;20023;-66
2023/12/21 04:37:00;;;;;;;12.52;3.50;;;;;;;;;;4973806;28;20157;-66
2023/12/21 04:39:26;;;;;;;12.35;3.40;;;;;;;;;;4962033;28;20054;-66
2023/12/21 04:41:52;;;;;;;13.77;2.80;;;;;;;;;;4964129;28;20489;-66
2023/12/21 04:44:18;;;;;;;13.20;4.88;;;;;;;;;;4958964;28;20026;-67
2023/12/21 04:46:47;;;;;;;9.45;2.70;;;;;;;;;;4972616;28;20054;-66
2023/12/21 04:49:14;;;;;;;9.07;3.08;;;;;;;;;;4969161;28;20534;-65
2023/12/21 04:51:40;;;;;;;8.30;2.58;;;;;;;;;;4972014;28;20057;-66
2023/12/21 04:54:06;;;;;;;10.05;2.83;;;;;;;;;;4963155;28;20139;-66
2023/12/21 04:56:33;;;;;;;4.25;2.83;;;;;;;;;;4973132;28;20454;-66
2023/12/21 04:58:59;;;;;;;7.90;3.10;;;;;;;;;;4941211;28;20372;-66
2023/12/21 05:01:25;;;;;;;6.70;2.95;;;;;;;;;;4964430;28;20035;-66
2023/12/21 05:03:53;;;;;;;6.07;2.42;;;;;;;;;;4947866;28;20040;-66
2023/12/21 05:06:19;;;;;;;9.80;2.20;;;;;;;;;;4992671;28;20493;-66
2023/12/21 05:08:45;;;;;;;8.18;3.03;;;;;;;;;;5046435;28;20028;-65
2023/12/21 05:11:11;;;;;;;9.90;3.10;;;;;;;;;;5034036;28;20163;-65
2023/12/21 05:13:38;;;;;;;8.30;2.60;;;;;;;;;;5038564;28;20029;-66
2023/12/21 05:16:04;;;;;;;4.78;2.28;;;;;;;;;;5043242;28;20039;-66
2023/12/21 05:18:31;;;;;;;8.95;2.45;;;;;;;;;;5037444;28;20024;-65
2023/12/21 05:20:57;;;;;;;7.53;1.98;;;;;;;;;;5041068;28;20110;-66
2023/12/21 05:23:23;;;;;;;7.95;2.60;;;;;;;;;;5047183;28;20140;-66
2023/12/21 05:25:50;;;;;;;7.00;2.65;;;;;;;;;;5047205;28;20028;-65
2023/12/21 05:28:16;;;;;;;4.20;1.88;;;;;;;;;;5027003;28;20043;-66
2023/12/21 05:30:42;;;;;;;5.05;2.28;;;;;;;;;;5038534;28;20086;-65
2023/12/21 05:33:09;;;;;;;5.07;1.80;;;;;;;;;;5026031;28;20374;-65
2023/12/21 05:35:35;;;;;;;4.82;2.22;;;;;;;;;;5043705;28;20028;-66
2023/12/21 05:38:02;;;;;;;4.57;1.90;;;;;;;;;;5014268;28;20032;-65
2023/12/21 05:40:28;;;;;;;9.05;2.53;;;;;;;;;;5036351;28;20563;-66
2023/12/21 05:42:54;;;;;;;4.88;1.90;;;;;;;;;;5040459;28;20025;-65
2023/12/21 05:45:20;;;;;;;1.80;1.42;;;;;;;;;;5040807;28;20021;-66
2023/12/21 05:47:46;;;;;;;5.10;2.00;;;;;;;;;;5037657;28;20465;-66
2023/12/21 05:50:13;;;;;;;10.48;2.10;;;;;;;;;;5033929;28;20412;-66
2023/12/21 05:52:41;;;;;;;7.07;2.22;;;;;;;;;;5024094;28;20049;-66
2023/12/21 05:55:10;;;;;;;7.47;2.63;;;;;;;;;;5033734;28;20021;-65
2023/12/21 05:57:36;;;;;;;6.82;2.78;;;;;;;;;;5011484;28;20445;-65
2023/12/21 06:00:04;;;;;;;2.40;2.20;;;;;;;;;;5044059;28;20555;-67
2023/12/21 06:02:30;;;;;;;8.48;2.90;;;;;;;;;;5028810;28;20067;-69
2023/12/21 06:04:56;;;;;;;4.15;1.85;;;;;;;;;;5043957;28;20036;-65
2023/12/21 06:07:22;;;;;;;3.60;2.10;;;;;;;;;;5045997;28;20076;-65
2023/12/21 06:09:50;;;;;;;5.18;2.63;;;;;;;;;;5038910;28;20041;-65
2023/12/21 06:12:16;;;;;;;5.20;2.33;;;;;;;;;;5026648;28;20059;-66
2023/12/21 06:14:42;;;;;;;8.63;2.05;;;;;;;;;;5040534;28;20029;-66
2023/12/21 06:17:14;;;;;;;7.18;2.00;;;;;;;;;;5027871;28;20025;-66
2023/12/21 06:19:41;;;;;;;7.05;2.20;;;;;;;;;;5037937;28;20397;-65
2023/12/21 06:22:07;;;;;;;3.28;1.92;;;;;;;;;;5031475;28;20128;-65
2023/12/21 06:24:33;;;;;;;6.50;2.40;;;;;;;;;;5032292;28;20067;-65
2023/12/21 06:26:59;;;;;;;6.65;1.83;;;;;;;;;;5034295;28;20021;-65
2023/12/21 06:29:25;;;;;;;4.07;2.08;;;;;;;;;;5043676;28;20037;-66
2023/12/21 06:31:52;;;;;;;6.45;2.60;;;;;;;;;;5029842;28;20064;-65
2023/12/21 06:34:19;;;;;;;3.22;1.73;;;;;;;;;;5029214;28;20039;-64
2023/12/21 06:36:46;;;;;;;3.63;2.03;;;;;;;;;;5033335;28;20472;-65
2023/12/21 06:39:13;;;;;;;3.25;1.83;;;;;;;;;;5021316;28;20029;-65
2023/12/21 06:41:39;;;;;;;5.22;1.60;;;;;;;;;;5033826;28;20579;-65
2023/12/21 06:44:05;;;;;;;3.17;1.38;;;;;;;;;;5031683;28;20033;-65
2023/12/21 06:46:31;;;;;;;3.25;1.58;;;;;;;;;;5037347;28;20033;-65
2023/12/21 06:48:57;;;;;;;2.35;1.33;;;;;;;;;;5042775;28;20505;-70
2023/12/21 06:51:23;;;;;;;4.10;2.03;;;;;;;;;;5042944;28;20688;-65
2023/12/21 06:53:50;;;;;;;4.13;2.05;;;;;;;;;;5024846;28;20032;-66
2023/12/21 06:56:17;;;;;;;2.05;1.85;;;;;;;;;;5025082;28;20038;-68
2023/12/21 06:58:43;;;;;;;2.55;1.33;;;;;;;;;;4948075;28;20466;-65
2023/12/21 07:01:10;;;;;;;2.30;1.40;;;;;;;;;;4943472;28;20035;-65
2023/12/21 07:03:36;;;;;;;1.52;1.30;;;;;;;;;;4945312;28;20035;-65
2023/12/21 07:06:02;;;;;;;5.40;1.98;;;;;;;;;;4952789;28;20744;-65
2023/12/21 07:08:28;;;;;;;4.15;2.08;;;;;;;;;;4957809;28;20039;-66
2023/12/21 07:10:54;;;;;;;1.67;1.58;;;;;;;;;;4963985;28;20057;-65
2023/12/21 07:13:21;;;;;;;2.17;1.65;;;;;;;;;;4944422;28;21179;-65
2023/12/21 07:15:47;;;;;;;2.22;2.08;;;;;;;;;;4954490;28;20023;-66
2023/12/21 07:18:13;;;;;;;4.93;1.65;;;;;;;;;;4950366;28;20034;-66
2023/12/21 07:20:39;;;;;;;2.97;1.92;;;;;;;;;;4957144;28;20033;-67
2023/12/21 07:23:05;;;;;;;3.22;1.42;;;;;;;;;;4963297;28;20125;-66
2023/12/21 07:25:32;;;;;;;3.47;1.48;;;;;;;;;;4963014;28;20034;-66
2023/12/21 07:27:58;;;;;;;1.40;1.30;;;;;;;;;;4980738;28;20031;-66
2023/12/21 07:30:24;;;;;;;4.00;1.50;;;;;;;;;;4949563;28;20614;-65
2023/12/21 07:32:50;;;;;;;2.35;1.63;;;;;;;;;;4945021;28;20100;-66
2023/12/21 07:35:16;;;;;;;5.32;1.67;;;;;;;;;;4965130;28;20070;-66
2023/12/21 07:37:42;;;;;;;3.92;1.70;;;;;;;;;;4964027;28;20035;-65
2023/12/21 07:40:09;;;;;;;5.40;2.13;;;;;;;;;;4988633;28;20029;-66
2023/12/21 07:42:35;;;;;;;2.92;1.50;;;;;;;;;;4959948;28;20069;-66
2023/12/21 07:45:01;;;;;;;2.85;1.83;;;;;;;;;;4952292;28;20543;-65
2023/12/21 07:47:31;;;;;;;4.35;1.60;;;;;;;;;;4967944;28;20031;-65
2023/12/21 07:49:57;;;;;;;3.92;1.52;;;;;;;;;;4965252;28;20073;-66
2023/12/21 07:52:23;;;;;;;2.17;1.40;;;;;;;;;;4957248;28;20912;-66
2023/12/21 07:54:50;;;;;;;2.85;1.73;;;;;;;;;;4987390;28;20032;-66
2023/12/21 07:57:16;;;;;;;7.22;2.20;;;;;;;;;;4964282;28;20039;-65
2023/12/21 07:59:43;;;;;;;2.17;1.80;;;;;;;;;;4982891;28;20751;-65
2023/12/21 08:02:12;;;;;;;2.10;1.90;;;;;;;;;;5001412;28;20023;-66
2023/12/21 08:04:38;;;;;;;3.83;1.67;;;;;;;;;;4964266;28;20138;-65
2023/12/21 08:07:05;;;;;;;5.15;1.70;;;;;;;;;;4963198;28;20037;-66
2023/12/21 08:09:31;;;;;;;8.38;2.28;;;;;;;;;;4962592;28;20031;-65
2023/12/21 08:11:57;;;;;;;4.07;1.83;;;;;;;;;;4965193;28;20337;-66
2023/12/21 08:14:27;;;;;;;4.10;2.03;;;;;;;;;;4950865;28;20263;-67
2023/12/21 08:16:54;;;;;;;6.43;2.55;;;;;;;;;;4962115;28;20061;-66
2023/12/21 08:19:21;;;;;;;4.18;1.95;;;;;;;;;;4968939;28;20539;-65
2023/12/21 08:21:50;;;;;;;6.72;2.33;;;;;;;;;;4965969;28;20035;-65
2023/12/21 08:24:16;;;;;;;4.35;1.98;;;;;;;;;;4960922;28;20381;-66
2023/12/21 08:26:43;;;;;;;9.02;2.20;;;;;;;;;;4965132;28;20070;-66
2023/12/21 08:29:09;;;;;;;5.88;2.08;;;;;;;;;;4962584;28;20035;-66
2023/12/21 08:31:35;;;;;;;3.45;1.70;;;;;;;;;;4983840;28;20350;-66
2023/12/21 08:34:02;;;;;;;2.67;1.60;;;;;;;;;;4954748;28;20582;-66
2023/12/21 08:36:28;;;;;;;3.72;2.60;;;;;;;;;;4956140;28;20019;-66
2023/12/21 08:38:54;;;;;;;3.70;2.10;;;;;;;;;;4959635;28;20019;-68
2023/12/21 08:41:24;;;;;;;2.90;2.22;;;;;;;;;;4961302;28;20057;-66
2023/12/21 08:43:51;;;;;;;4.55;1.80;;;;;;;;;;5021228;28;20030;-66
2023/12/21 08:46:17;;;;;;;2.45;2.20;;;;;;;;;;4952642;28;20035;-67
2023/12/21 08:48:44;;;;;;;3.58;1.90;;;;;;;;;;4957139;28;20498;-67
2023/12/21 08:51:10;;;;;;;7.97;2.80;;;;;;;;;;4945261;28;20424;-66
2023/12/21 08:53:36;;;;;;;2.45;1.63;;;;;;;;;;4959770;28;20478;-66
2023/12/21 08:56:05;;;;;;;4.18;1.80;;;;;;;;;;4960890;28;20042;-66
2023/12/21 08:58:31;;;;;;;5.18;2.15;;;;;;;;;;5046974;28;20361;-65
2023/12/21 09:00:58;;;;;;;4.55;2.25;;;;;;;;;;5048237;28;20032;-65
2023/12/21 09:03:25;;;;;;;8.63;2.22;;;;;;;;;;5041719;28;20013;-66
2023/12/21 09:05:53;;;;;;;4.28;2.33;;;;;;;;;;5041214;28;20135;-65
2023/12/21 09:08:20;;;;;;;5.68;2.10;;;;;;;;;;5050227;28;20036;-67
2023/12/21 09:10:46;;;;;;;7.68;2.25;;;;;;;;;;5051941;28;20036;-66
2023/12/21 09:13:13;;;;;;;3.38;1.98;;;;;;;;;;5036793;28;20037;-67
2023/12/21 09:15:39;;;;;;;4.30;2.05;;;;;;;;;;5045481;28;20103;-66
2023/12/21 09:18:08;;;;;;;4.13;2.10;;;;;;;;;;5060900;28;20468;-66
2023/12/21 09:20:38;;;;;;;7.95;1.80;;;;;;;;;;5053533;28;20413;-66
2023/12/21 09:23:04;;;;;;;6.30;2.50;;;;;;;;;;5057910;28;20029;-66
2023/12/21 09:25:31;;;;;;;6.97;2.65;;;;;;;;;;5054461;28;20023;-66
2023/12/21 09:27:58;;;;;;;4.03;1.90;;;;;;;;;;5051703;28;20021;-66
2023/12/21 09:30:26;;;;;;;8.27;2.30;;;;;;;;;;5052288;28;20480;-66
2023/12/21 09:32:52;;;;;;;8.13;2.05;;;;;;;;;;5050736;28;20029;-66
2023/12/21 09:35:19;;;;;;;7.20;2.00;;;;;;;;;;5046399;28;20032;-66
2023/12/21 09:37:45;;;;;;;5.30;2.40;;;;;;;;;;5039777;28;20479;-66
2023/12/21 09:40:15;;;;;;;5.65;2.83;;;;;;;;;;5040002;28;20091;-68
2023/12/21 09:42:46;;;;;;;7.97;2.22;;;;;;;;;;5040364;28;20389;-66
2023/12/21 09:45:12;;;;;;;8.20;2.08;;;;;;;;;;5036971;28;20025;-65
2023/12/21 09:47:42;;;;;;;4.03;1.98;;;;;;;;;;5045824;28;20079;-66
2023/12/21 09:50:08;;;;;;;10.02;2.08;;;;;;;;;;5032281;28;20029;-66
2023/12/21 09:52:37;;;;;;;8.45;2.85;;;;;;;;;;5038066;28;20028;-66
2023/12/21 09:55:05;;;;;;;10.35;2.63;;;;;;;;;;5052476;28;20444;-66
2023/12/21 09:57:32;;;;;;;10.50;2.53;;;;;;;;;;4996304;28;20125;-67
2023/12/21 09:59:58;;;;;;;5.72;2.30;;;;;;;;;;4963735;28;20034;-66
2023/12/21 10:02:30;;;;;;;6.82;2.28;;;;;;;;;;4960053;28;20035;-67
2023/12/21 10:04:56;;;;;;;5.72;2.13;;;;;;;;;;4970593;28;20030;-66
2023/12/21 10:07:23;;;;;;;8.02;2.63;;;;;;;;;;4975925;28;20062;-67
2023/12/21 10:09:49;;;;;;;3.38;2.30;;;;;;;;;;4976424;28;20039;-66
2023/12/21 10:12:15;;;;;;;6.88;2.97;;;;;;;;;;4961943;28;20050;-67
2023/12/21 10:14:43;;;;;;;8.98;2.83;;;;;;;;;;4965382;28;20041;-66
2023/12/21 10:17:10;;;;;;;18.00;2.50;;;;;;;;;;4959120;28;20335;-67
2023/12/21 10:19:45;;;;;;;7.57;2.67;;;;;;;;;;4964203;28;20023;-66
2023/12/21 10:22:11;;;;;;;5.68;2.78;;;;;;;;;;4966147;28;20035;-66
2023/12/21 10:24:40;;;;;;;7.57;2.97;;;;;;;;;;4963789;28;20399;-65
2023/12/21 10:27:13;;;;;;;11.05;2.70;;;;;;;;;;4963246;28;20061;-67
2023/12/21 10:29:42;;;;;;;10.15;2.75;;;;;;;;;;4961179;28;20069;-66
2023/12/21 10:32:09;;;;;;;6.00;2.63;;;;;;;;;;4970750;28;20023;-66
2023/12/21 10:34:36;;;;;;;3.75;2.30;;;;;;;;;;4971186;28;20042;-65
2023/12/21 10:37:03;;;;;;;8.23;2.53;;;;;;;;;;4965681;28;20597;-66
2023/12/21 10:39:30;;;;;;;4.78;2.05;;;;;;;;;;4972372;28;20034;-66
2023/12/21 10:41:57;;;;;;;6.93;1.90;;;;;;;;;;4961504;28;20034;-68
2023/12/21 10:44:23;;;;;;;9.65;2.50;;;;;;;;;;4955866;28;20039;-66
2023/12/21 10:46:50;;;;;;;5.70;2.38;;;;;;;;;;4962428;28;20026;-66
2023/12/21 10:49:17;;;;;;;5.88;1.95;;;;;;;;;;4963126;28;20398;-66
2023/12/21 10:51:43;;;;;;;3.30;2.03;;;;;;;;;;4972471;28;20440;-66
2023/12/21 10:54:11;;;;;;;4.28;1.90;;;;;;;;;;4965130;28;20030;-66
2023/12/21 10:56:44;;;;;;;7.07;1.90;;;;;;;;;;4966972;28;20441;-65
2023/12/21 10:59:11;;;;;;;4.57;2.20;;;;;;;;;;4968891;28;20050;-65
2023/12/21 11:01:38;;;;;;;5.95;2.33;;;;;;;;;;4985450;28;20038;-70
2023/12/21 11:04:04;;;;;;;7.13;2.60;;;;;;;;;;4965283;28;20441;-66
2023/12/21 11:06:32;;;;;;;8.70;2.15;;;;;;;;;;4970939;28;20034;-66
2023/12/21 11:08:59;;;;;;;4.32;2.15;;;;;;;;;;4951939;28;20502;-66
2023/12/21 11:11:26;;;;;;;2.35;1.65;;;;;;;;;;4969683;28;20061;-69
2023/12/21 11:13:55;;;;;;;10.55;2.22;;;;;;;;;;4977111;28;20434;-66
2023/12/21 11:16:24;;;;;;;3.28;1.95;;;;;;;;;;4972067;28;20038;-66
2023/12/21 11:18:51;;;;;;;7.80;2.38;;;;;;;;;;4975166;28;20291;-66
2023/12/21 11:21:19;;;;;;;3.97;2.00;;;;;;;;;;4973136;28;20058;-67
2023/12/21 11:23:48;;;;;;;7.88;2.28;;;;;;;;;;5009055;28;20030;-66
2023/12/21 11:26:20;;;;;;;5.80;2.53;;;;;;;;;;4981429;28;20034;-67
2023/12/21 11:28:46;;;;;;;4.43;2.17;;;;;;;;;;4986510;28;20595;-66
2023/12/21 11:31:16;;;;;;;7.43;2.67;;;;;;;;;;4971214;28;20034;-66
2023/12/21 11:33:42;;;;;;;10.95;2.58;;;;;;;;;;5008256;28;20038;-66
2023/12/21 11:36:09;;;;;;;8.85;2.45;;;;;;;;;;4967592;28;20031;-67
2023/12/21 11:38:54;;;;;;;12.70;3.25;;;;;;;;;;4965942;28;20030;-66
2023/12/21 11:41:24;;;;;;;10.30;3.97;;;;;;;;;;4975109;28;20478;-69
2023/12/21 11:43:56;;;;;;;7.53;2.72;;;;;;;;;;4968513;28;20042;-66
2023/12/21 11:46:23;;;;;;;7.88;3.17;;;;;;;;;;4963973;28;20039;-66
2023/12/21 11:48:49;;;;;;;10.02;3.03;;;;;;;;;;4962482;28;20480;-67
2023/12/21 11:51:15;;;;;;;7.15;3.08;;;;;;;;;;4983265;28;20028;-67
2023/12/21 11:53:43;;;;;;;8.30;2.92;;;;;;;;;;5000270;28;20091;-67
2023/12/21 11:56:13;;;;;;;9.50;3.15;;;;;;;;;;4966612;28;20740;-66
2023/12/21 11:58:40;;;;;;;6.82;3.28;;;;;;;;;;4971581;28;20122;-67
2023/12/21 12:01:07;;;;;;;10.60;3.13;;;;;;;;;;4973422;28;20063;-66
2023/12/21 12:03:37;;;;;;;15.88;3.13;;;;;;;;;;4965618;28;20065;-66
2023/12/21 12:06:04;;;;;;;9.52;3.42;;;;;;;;;;4964975;28;20031;-66
2023/12/21 12:08:33;;;;;;;6.95;2.88;;;;;;;;;;4967852;28;20031;-70
2023/12/21 12:11:00;;;;;;;13.85;3.50;;;;;;;;;;4968129;28;20499;-66
2023/12/21 12:13:26;;;;;;;14.35;3.58;;;;;;;;;;4961443;28;20058;-66
2023/12/21 12:15:52;;;;;;;14.95;3.38;;;;;;;;;;4965001;28;20057;-66
2023/12/21 12:18:22;;;;;;;7.13;3.83;;;;;;;;;;4967610;28;20073;-66
2023/12/21 12:20:52;;;;;;;10.80;4.07;;;;;;;;;;4982160;28;20030;-66
2023/12/21 12:23:19;;;;;;;12.15;3.85;;;;;;;;;;4928994;28;20487;-66
2023/12/21 12:25:45;;;;;;;16.65;3.88;;;;;;;;;;4967721;28;20545;-67
2023/12/21 12:28:11;;;;;;;10.10;3.67;;;;;;;;;;4964549;28;20066;-67
2023/12/21 12:30:38;;;;;;;15.35;3.58;;;;;;;;;;4963768;28;20034;-67
2023/12/21 12:33:05;;;;;;;15.55;3.92;;;;;;;;;;4978981;28;20027;-66
2023/12/21 12:35:32;;;;;;;7.93;3.00;;;;;;;;;;4961170;28;20030;-66
2023/12/21 12:37:58;;;;;;;9.93;3.47;;;;;;;;;;4962331;28;20027;-66
2023/12/21 12:40:24;;;;;;;14.20;4.13;;;;;;;;;;4958567;28;20034;-66
2023/12/21 12:42:51;;;;;;;12.88;3.30;;;;;;;;;;4986263;28;20137;-66
2023/12/21 12:45:21;;;;;;;12.65;4.50;;;;;;;;;;4967014;28;20039;-66
2023/12/21 12:47:47;;;;;;;12.93;4.50;;;;;;;;;;4976335;28;20028;-66
2023/12/21 12:50:16;;;;;;;17.45;3.72;;;;;;;;;;4979505;28;20076;-66
2023/12/21 12:52:44;;;;;;;9.90;3.58;;;;;;;;;;4980287;28;20031;-65
2023/12/21 12:55:23;;;;;;;10.60;3.47;;;;;;;;;;4965823;28;20029;-68
2023/12/21 12:57:51;;;;;;;15.15;3.75;;;;;;;;;;4959759;28;20069;-66
2023/12/21 13:00:20;;;;;;;8.95;3.35;;;;;;;;;;4959883;28;20092;-68
2023/12/21 13:02:47;;;;;;;10.43;4.03;;;;;;;;;;4967783;28;20027;-66
2023/12/21 13:05:17;;;;;;;9.32;3.78;;;;;;;;;;4964202;28;20089;-66
2023/12/21 13:07:43;;;;;;;8.70;3.17;;;;;;;;;;4958937;28;20379;-66
2023/12/21 13:10:14;;;;;;;8.00;3.42;;;;;;;;;;4957251;28;20031;-66
2023/12/21 13:12:40;;;;;;;7.00;3.40;;;;;;;;;;4964898;28;20096;-66
2023/12/21 13:15:12;;;;;;;8.60;3.40;;;;;;;;;;4944552;28;20058;-66
2023/12/21 13:17:39;;;;;;;12.90;3.25;;;;;;;;;;4999176;28;20022;-67
2023/12/21 13:20:12;;;;;;;8.20;3.05;;;;;;;;;;5039972;28;20101;-66
2023/12/21 13:22:38;;;;;;;9.55;3.20;;;;;;;;;;4961108;28;20490;-66
2023/12/21 13:25:05;;;;;;;12.23;3.90;;;;;;;;;;4981270;28;20035;-66
2023/12/21 13:27:33;;;;;;;11.05;3.53;;;;;;;;;;4968426;28;20035;-66
2023/12/21 13:29:59;;;;;;;9.30;3.90;;;;;;;;;;4975987;28;20030;-66
2023/12/21 13:32:30;;;;;;;12.75;3.63;;;;;;;;;;4969636;28;20053;-66
2023/12/21 13:34:56;;;;;;;13.77;4.50;;;;;;;;;;4971415;28;20034;-65
2023/12/21 13:37:22;;;;;;;16.88;4.97;;;;;;;;;;4967018;28;20023;-66
2023/12/21 13:39:49;;;;;;;11.65;3.53;;;;;;;;;;4961546;28;20022;-66
2023/12/21 13:42:16;;;;;;;14.18;3.67;;;;;;;;;;4963827;28;20035;-66
2023/12/21 13:44:43;;;;;;;10.27;3.45;;;;;;;;;;4962470;28;20114;-66
2023/12/21 13:47:14;;;;;;;14.10;3.95;;;;;;;;;;4970003;28;20046;-66
2023/12/21 13:49:40;;;;;;;16.55;3.83;;;;;;;;;;4978457;28;20026;-67
2023/12/21 13:52:08;;;;;;;13.15;6.45;;;;;;;;;;4969277;28;20050;-66
2023/12/21 13:54:36;;;;;;;18.00;4.30;;;;;;;;;;4964113;28;20360;-66
2023/12/21 13:57:03;;;;;;;16.83;3.75;;;;;;;;;;4963884;28;20442;-66
2023/12/21 13:59:29;;;;;;;16.73;3.72;;;;;;;;;;4966964;28;20403;-66
2023/12/21 14:01:55;;;;;;;11.77;4.32;;;;;;;;;;4961445;28;20438;-66
2023/12/21 14:04:21;;;;;;;16.60;4.53;;;;;;;;;;4965125;28;20437;-67
2023/12/21 14:06:48;;;;;;;13.38;3.80;;;;;;;;;;4960850;28;20035;-66
2023/12/21 14:09:14;;;;;;;9.73;3.08;;;;;;;;;;4946489;28;20506;-66
2023/12/21 14:11:40;;;;;;;18.55;4.75;;;;;;;;;;4959293;28;20895;-66
2023/12/21 14:14:06;;;;;;;10.50;2.97;;;;;;;;;;4963729;28;20023;-65
2023/12/21 14:16:32;;;;;;;16.65;4.78;;;;;;;;;;4963804;28;20035;-66
2023/12/21 14:19:00;;;;;;;10.13;3.20;;;;;;;;;;4973080;28;20534;-66
2023/12/21 14:21:26;;;;;;;14.93;4.00;;;;;;;;;;4965403;28;20019;-66
2023/12/21 14:23:52;;;;;;;13.05;3.45;;;;;;;;;;4971011;28;20035;-67
2023/12/21 14:26:20;;;;;;;14.65;3.65;;;;;;;;;;4971604;28;20085;-66
2023/12/21 14:28:46;;;;;;;7.00;2.92;;;;;;;;;;5003740;28;20023;-66
2023/12/21 14:31:14;;;;;;;11.65;3.72;;;;;;;;;;4958478;28;20034;-68
2023/12/21 14:33:41;;;;;;;11.98;3.75;;;;;;;;;;4991108;28;21005;-66
2023/12/21 14:36:07;;;;;;;8.32;2.80;;;;;;;;;;4964390;28;20088;-67
2023/12/21 14:38:34;;;;;;;10.20;4.93;;;;;;;;;;4964721;28;20545;-66